HEBA/HBE METAR and TAF weather

Enter ICAO airport designator
Station Type Date Time Source
HEBA METAR 2021/09/28 16:00 UTC NOAA

HEBA 281600Z 31007KT CAVOK 26/19 Q1012 NOSIG


Station Type Date Time Source
HEBA Decoded METAR 2021/09/28 16:00 UTC NOAA

Alexandria Borg El Arab, Egypt (HEBA) 31-31N 030-10E
Sep 28, 2021 - 12:00 PM EDT / 2021.09.28 1600 UTC
Wind: from the NW (310 degrees) at 8 MPH (7 KT):0
Visibility: greater than 7 mile(s):0
Temperature: 78 F (26 C)
Dew Point: 66 F (19 C)
Relative Humidity: 65%
Pressure (altimeter): 29.88 in. Hg (1012 hPa)
ob: HEBA 281600Z 31007KT CAVOK 26/19 Q1012 NOSIG
cycle: 16

Station Type Date Time Source
HEBA TAF 2021/09/28 18:51 UTC NOAA

TAF HEBA 281700Z 2818/2924 33010KT 9999 FEW020

Example: see airport list